Time;durP1;ratioP1;P1;durP2;ratioP2;P2;SDS_P1;SDS_P2;PMS_P1;PMS_P2;Temp;Humidity;BMP_temperature;BMP_pressure;BME280_temperature;BME280_humidity;BME280_pressure;Samples;Min_cycle;Max_cycle;Signal;HPM_P1;HPM_P2
2023/05/09 00:00:31;;;;;;;15.77;10.70;;;18.40;81.60;;;17.59;65.48;100753.81;5054387;28;20124;-82
2023/05/09 00:02:58;;;;;;;12.32;9.98;;;18.30;81.50;;;17.59;65.33;100745.72;5043692;28;20045;-80
2023/05/09 00:05:26;;;;;;;16.27;10.85;;;18.30;81.50;;;17.57;65.42;100740.59;5051056;28;20045;-82
2023/05/09 00:07:53;;;;;;;13.50;10.77;;;18.30;81.50;;;17.55;65.51;100737.31;5056909;28;20205;-82
2023/05/09 00:10:21;;;;;;;13.90;10.73;;;18.30;81.40;;;17.56;65.55;100735.44;5060644;28;20045;-82
2023/05/09 00:12:50;;;;;;;19.05;11.57;;;18.30;81.60;;;17.53;65.68;100727.84;5063096;28;20068;-82
2023/05/09 00:15:17;;;;;;;19.13;11.50;;;18.30;81.60;;;17.53;65.46;100727.84;5070724;28;20052;-82
2023/05/09 00:17:45;;;;;;;14.15;11.55;;;18.30;81.40;;;17.52;65.57;100724.34;5063211;28;20045;-81
2023/05/09 00:20:13;;;;;;;14.40;11.75;;;18.30;81.50;;;17.50;65.46;100727.28;5043009;28;20049;-83
2023/05/09 00:22:42;;;;;;;18.65;11.48;;;18.30;81.60;;;17.48;65.63;100726.72;5053804;28;20041;-82
2023/05/09 00:25:11;;;;;;;14.80;11.05;;;18.20;81.50;;;17.48;65.40;100718.63;5059233;28;20483;-82
2023/05/09 00:27:38;;;;;;;15.57;11.77;;;18.20;81.60;;;17.46;65.50;100714.53;5065257;28;20036;-82
2023/05/09 00:30:08;;;;;;;13.20;11.13;;;18.20;81.60;;;17.44;65.55;100709.41;5070966;28;20048;-82
2023/05/09 00:32:35;;;;;;;14.73;12.13;;;18.20;81.60;;;17.43;65.53;100704.28;5054429;28;20044;-82
2023/05/09 00:35:03;;;;;;;14.32;11.75;;;18.20;81.60;;;17.43;65.46;100709.66;5066002;28;20072;-82
2023/05/09 00:37:31;;;;;;;15.00;11.98;;;18.10;81.60;;;17.42;65.42;100706.16;5062019;28;20064;-82
2023/05/09 00:40:00;;;;;;;16.35;12.68;;;18.20;81.60;;;17.40;65.38;100707.47;5055055;28;20147;-82
2023/05/09 00:42:27;;;;;;;14.75;11.80;;;18.20;81.60;;;17.37;65.40;100692.63;5068972;28;20527;-82
2023/05/09 00:44:54;;;;;;;15.48;11.77;;;18.10;81.60;;;17.35;65.56;100686.63;5066273;28;20508;-82
2023/05/09 00:47:24;;;;;;;18.50;12.35;;;18.10;81.80;;;17.34;65.42;100689.59;5048499;28;20157;-82
2023/05/09 00:49:51;;;;;;;14.98;12.38;;;18.10;81.80;;;17.32;65.58;100684.44;5067817;28;20036;-82
2023/05/09 00:52:22;;;;;;;17.15;13.57;;;18.10;81.80;;;17.31;65.46;100688.19;5051107;28;20037;-81
2023/05/09 00:54:49;;;;;;;18.73;13.45;;;18.10;81.80;;;17.31;65.42;100684.69;5061984;28;20069;-82
2023/05/09 00:57:18;;;;;;;15.35;12.98;;;18.00;81.70;;;17.28;65.45;100683.31;5048487;28;20102;-82
2023/05/09 00:59:46;;;;;;;16.85;13.55;;;18.00;81.60;;;17.28;65.62;100677.94;5058980;28;20540;-82
2023/05/09 01:02:13;;;;;;;15.77;13.32;;;18.00;81.60;;;17.25;65.53;100675.72;5070187;28;20132;-82
2023/05/09 01:04:41;;;;;;;16.70;13.15;;;18.00;81.70;;;17.25;65.60;100670.34;5051962;28;20044;-81
2023/05/09 01:07:19;;;;;;;18.73;14.20;;;18.00;81.70;;;17.23;65.50;100664.41;5051505;28;20041;-81
2023/05/09 01:09:56;;;;;;;20.60;14.32;;;18.00;81.80;;;17.21;65.85;100655.72;5050103;28;20049;-82
2023/05/09 01:12:37;;;;;;;18.45;13.90;;;18.00;81.80;;;17.21;65.78;100661.94;5046451;28;20119;-82
2023/05/09 01:15:12;;;;;;;17.75;13.98;;;18.00;81.90;;;17.20;65.80;100654.91;5056727;28;20052;-81
2023/05/09 01:17:49;;;;;;;19.38;14.32;;;17.90;81.90;;;17.20;65.75;100654.09;5049536;28;20139;-82
2023/05/09 01:20:26;;;;;;;18.65;14.57;;;17.90;82.00;;;17.18;65.99;100646.28;5058073;28;20048;-82
2023/05/09 01:23:22;;;;;;;18.30;13.80;;;17.90;82.00;;;17.17;65.88;100643.81;5063479;28;20674;-82
2023/05/09 01:26:01;;;;;;;21.25;14.93;;;17.90;82.00;;;17.17;66.05;100643.81;5059651;28;20509;-81
2023/05/09 01:29:02;;;;;;;19.70;15.35;;;17.90;82.20;;;17.16;66.10;100642.19;5049494;28;20037;-82
2023/05/09 01:31:34;;;;;;;22.27;15.00;;;17.90;82.20;;;17.16;66.00;100642.19;5065072;28;20538;-82
2023/05/09 01:34:03;;;;;;;20.63;15.80;;;17.90;82.20;;;17.15;66.15;100635.16;5058524;28;20045;-82
2023/05/09 01:36:32;;;;;;;20.92;15.50;;;17.90;82.20;;;17.14;66.18;100631.66;5066700;28;20135;-82
2023/05/09 01:39:03;;;;;;;19.70;15.57;;;17.90;82.30;;;17.14;66.35;100633.56;5063319;28;20784;-82
2023/05/09 01:41:34;;;;;;;19.73;15.30;;;17.90;82.30;;;17.15;66.02;100627.91;5048105;28;20045;-81
2023/05/09 01:44:06;;;;;;;19.17;14.50;;;17.90;82.50;;;17.14;66.22;100622.78;5056876;28;20139;-82
2023/05/09 01:46:36;;;;;;;18.33;14.43;;;17.90;82.40;;;17.14;66.19;100628.16;5050238;28;20506;-82
2023/05/09 01:49:04;;;;;;;21.27;15.38;;;17.90;82.50;;;17.15;66.20;100627.09;5065648;28;20039;-81
2023/05/09 01:51:34;;;;;;;22.33;15.60;;;17.90;82.50;;;17.14;66.26;100617.38;5048731;28;20124;-81
2023/05/09 01:54:03;;;;;;;20.23;15.38;;;17.90;82.60;;;17.13;66.46;100623.81;5059020;28;20052;-82
2023/05/09 01:56:32;;;;;;;18.83;13.82;;;17.90;82.50;;;17.13;66.47;100630.03;5051421;28;20048;-82
2023/05/09 01:59:02;;;;;;;17.80;13.85;;;17.80;82.50;;;17.11;66.54;100626.75;5043691;28;20045;-81
2023/05/09 02:01:30;;;;;;;17.60;13.67;;;17.80;82.50;;;17.10;66.66;100624.34;5051096;28;20055;-82
2023/05/09 02:04:01;;;;;;;17.63;12.88;;;17.80;82.60;;;17.08;66.50;100618.34;5053503;28;20176;-81
2023/05/09 02:06:30;;;;;;;16.55;12.95;;;17.80;82.70;;;17.06;66.69;100625.88;5051562;28;20115;-81
2023/05/09 02:08:59;;;;;;;17.33;12.48;;;17.80;82.70;;;17.04;66.63;100622.66;5047599;28;20120;-81
2023/05/09 02:11:26;;;;;;;18.77;12.90;;;17.70;82.80;;;17.01;66.76;100623.13;5086617;22;20097;-76
2023/05/09 02:13:53;;;;;;;18.30;11.95;;;17.70;82.90;;;17.01;66.70;100620.44;5073430;28;20040;-76
2023/05/09 02:16:21;;;;;;;16.30;12.70;;;17.70;82.90;;;16.98;66.68;100627.13;5069978;28;20125;-75
2023/05/09 02:18:48;;;;;;;17.88;12.93;;;17.70;83.00;;;16.97;66.88;100629.00;5079471;28;20503;-75
2023/05/09 02:21:17;;;;;;;17.58;12.65;;;17.70;83.10;;;16.97;67.14;100631.72;5094203;28;20051;-75
2023/05/09 02:23:45;;;;;;;17.23;12.07;;;17.70;83.20;;;16.93;67.26;100621.66;5086226;28;20036;-76
2023/05/09 02:26:13;;;;;;;16.70;12.18;;;17.70;83.30;;;16.90;67.37;100620.31;5070070;28;20055;-75
2023/05/09 02:28:42;;;;;;;16.90;13.00;;;17.60;83.30;;;16.91;67.30;100624.63;5065647;28;20037;-75
2023/05/09 02:31:12;;;;;;;16.65;12.40;;;17.60;83.30;;;16.89;67.48;100620.56;5066009;28;20136;-75
2023/05/09 02:33:41;;;;;;;18.33;13.70;;;17.60;83.40;;;16.87;67.61;100628.88;5088058;28;20043;-77
2023/05/09 02:36:10;;;;;;;22.30;16.30;;;17.60;83.50;;;16.88;67.59;100630.50;5084863;28;20062;-76
2023/05/09 02:38:40;;;;;;;19.08;15.60;;;17.60;83.50;;;16.87;67.68;100622.69;5098939;28;20050;-77
2023/05/09 02:41:07;;;;;;;19.48;14.07;;;17.60;83.60;;;16.87;67.76;100623.50;5068951;28;20062;-77
2023/05/09 02:43:34;;;;;;;22.77;15.85;;;17.60;83.60;;;16.88;67.68;100627.81;5061198;28;20032;-76
2023/05/09 02:46:02;;;;;;;22.30;16.75;;;17.60;83.50;;;16.90;67.78;100616.81;5084209;28;20714;-76
2023/05/09 02:48:29;;;;;;;28.75;20.73;;;17.60;83.60;;;16.91;68.09;100619.25;5069872;28;20055;-76
2023/05/09 02:50:57;;;;;;;28.50;20.05;;;17.60;84.30;;;16.91;67.77;100613.84;5077727;28;20072;-76
2023/05/09 02:53:24;;;;;;;27.88;20.50;;;17.60;83.80;;;16.91;67.85;100621.94;5086616;28;20549;-77
2023/05/09 02:55:53;;;;;;;26.35;19.23;;;17.70;83.90;;;16.94;67.74;100605.28;5064255;28;20139;-76
2023/05/09 02:58:20;;;;;;;29.70;20.55;;;17.70;83.80;;;16.95;67.91;100606.91;5088560;28;20062;-77
2023/05/09 03:00:47;;;;;;;30.67;21.23;;;17.70;83.80;;;16.96;68.00;100607.72;5086086;28;20047;-77
2023/05/09 03:03:16;;;;;;;32.90;21.48;;;17.70;84.10;;;16.98;67.96;100608.25;5066265;28;20663;-77
2023/05/09 03:05:44;;;;;;;30.67;20.60;;;17.70;83.90;;;16.97;68.10;100615.53;5069566;28;20574;-77
2023/05/09 03:08:11;;;;;;;30.17;21.50;;;17.70;84.30;;;16.97;68.53;100604.75;5070106;28;20126;-77
2023/05/09 03:10:38;;;;;;;31.23;21.33;;;17.70;84.70;;;16.98;68.38;100602.88;5068783;28;20071;-77
2023/05/09 03:13:08;;;;;;;29.25;21.10;;;17.70;84.30;;;16.99;68.17;100607.22;5070780;28;20040;-76
2023/05/09 03:15:35;;;;;;;33.17;23.15;;;17.70;84.30;;;16.98;68.67;100602.88;5065776;28;20052;-76
2023/05/09 03:18:03;;;;;;;31.55;21.25;;;17.70;84.80;;;16.98;68.61;100602.88;5072956;28;20058;-76
2023/05/09 03:20:30;;;;;;;30.38;21.65;;;17.70;84.40;;;16.99;68.57;100602.66;5066375;28;20067;-77
2023/05/09 03:22:58;;;;;;;32.83;21.25;;;17.70;84.30;;;17.02;68.19;100597.81;5073836;28;20044;-77
2023/05/09 03:25:26;;;;;;;34.42;21.63;;;17.70;84.30;;;17.03;68.46;100599.44;5073974;28;20056;-76
2023/05/09 03:27:53;;;;;;;37.63;23.02;;;17.70;84.30;;;17.02;68.63;100603.19;5072855;28;20496;-76
2023/05/09 03:30:21;;;;;;;36.17;23.52;;;17.70;84.90;;;17.00;68.57;100595.38;5089073;28;20056;-77
2023/05/09 03:32:50;;;;;;;32.90;22.13;;;17.70;84.30;;;17.03;68.49;100588.66;5071669;28;20094;-76
2023/05/09 03:35:17;;;;;;;34.65;22.98;;;17.70;84.30;;;17.03;68.47;100589.50;5098118;28;20050;-77
2023/05/09 03:37:44;;;;;;;31.83;22.52;;;17.80;84.30;;;17.04;68.61;100590.31;5083103;28;20126;-76
2023/05/09 03:40:12;;;;;;;34.58;22.83;;;17.80;84.30;;;17.05;68.61;100591.94;5071572;28;20093;-76
2023/05/09 03:42:47;;;;;;;31.25;22.67;;;17.80;84.50;;;17.06;68.78;100588.16;5073265;28;20040;-77
2023/05/09 03:45:14;;;;;;;35.22;22.13;;;17.80;84.50;;;17.07;68.52;100589.78;5069596;28;20051;-77
2023/05/09 03:47:43;;;;;;;43.30;27.30;;;17.80;84.30;;;17.05;68.91;100586.53;5072332;28;20048;-76
2023/05/09 03:50:11;;;;;;;40.03;24.83;;;17.80;84.70;;;17.05;68.96;100581.97;5072591;28;20508;-76
2023/05/09 03:52:39;;;;;;;47.67;28.35;;;17.80;84.90;;;17.05;69.40;100589.25;5069110;28;20048;-76
2023/05/09 03:55:08;;;;;;;52.03;27.90;;;17.80;85.20;;;17.02;69.34;100582.44;5056687;28;20064;-77
2023/05/09 03:57:37;;;;;;;43.55;26.50;;;17.80;85.20;;;17.04;69.41;100582.22;5065796;28;20138;-76
2023/05/09 04:00:06;;;;;;;48.78;29.20;;;17.80;85.50;;;16.99;69.74;100583.78;5071259;28;20075;-77
2023/05/09 04:02:41;;;;;;;45.65;27.27;;;17.70;85.80;;;16.94;70.08;100570.25;5083673;28;20671;-77
2023/05/09 04:05:13;;;;;;;45.28;27.42;;;17.70;86.00;;;16.94;70.05;100574.81;5067820;28;20051;-76
2023/05/09 04:07:40;;;;;;;48.80;29.15;;;17.70;86.10;;;16.91;70.33;100570.75;5073064;28;20043;-77
2023/05/09 04:10:09;;;;;;;41.95;27.40;;;17.70;86.20;;;16.93;69.96;100574.03;5072095;28;20743;-75
2023/05/09 04:12:37;;;;;;;40.17;26.73;;;17.70;86.10;;;16.94;69.77;100570.25;5090190;28;20073;-75
2023/05/09 04:15:07;;;;;;;46.88;27.17;;;17.70;85.60;;;16.92;70.14;100575.06;5072004;28;20054;-74
2023/05/09 04:17:35;;;;;;;45.88;28.83;;;17.70;86.20;;;16.88;70.41;100563.16;5072345;28;20071;-74
2023/05/09 04:20:02;;;;;;;49.42;27.98;;;17.60;86.30;;;16.87;70.52;100564.22;5068278;28;20485;-74
2023/05/09 04:22:31;;;;;;;44.72;27.17;;;17.60;86.30;;;16.89;70.15;100561.31;5068958;28;20052;-73
2023/05/09 04:24:58;;;;;;;48.80;30.63;;;17.70;85.90;;;16.89;70.37;100562.09;5056632;28;20082;-74
2023/05/09 04:27:26;;;;;;;62.92;32.05;;;17.70;86.30;;;16.90;70.17;100561.03;5085877;28;20047;-73
2023/05/09 04:29:54;;;;;;;49.50;30.60;;;17.70;85.80;;;16.90;70.31;100555.66;5070966;28;20056;-74
2023/05/09 04:32:22;;;;;;;52.58;30.35;;;17.70;86.10;;;16.94;70.27;100558.66;5071108;28;20043;-73
2023/05/09 04:34:49;;;;;;;54.72;30.17;;;17.70;85.90;;;16.92;70.42;100558.09;5070324;28;20058;-74
2023/05/09 04:37:21;;;;;;;53.17;28.58;;;17.70;86.20;;;16.93;70.27;100547.06;5091912;28;20127;-74
2023/05/09 04:39:50;;;;;;;52.70;30.50;;;17.70;85.90;;;16.95;69.97;100539.53;5070228;28;20040;-76
2023/05/09 04:42:24;;;;;;;48.58;28.48;;;17.70;85.70;;;16.97;69.94;100548.19;5066195;28;20059;-77
2023/05/09 04:44:52;;;;;;;55.88;31.42;;;17.70;85.60;;;16.99;70.14;100542.56;5059446;28;20059;-77
2023/05/09 04:47:21;;;;;;;51.00;30.38;;;17.70;86.10;;;16.99;69.89;100535.28;5066429;28;20512;-77
2023/05/09 04:49:58;;;;;;;51.25;29.23;;;17.70;85.70;;;16.98;69.93;100539.06;5085974;28;20040;-77
2023/05/09 04:52:26;;;;;;;52.45;30.73;;;17.70;85.70;;;16.99;69.79;100537.97;5067884;28;20132;-77
2023/05/09 04:54:55;;;;;;;49.15;29.95;;;17.70;85.60;;;17.00;69.99;100536.09;5069239;28;20056;-77
2023/05/09 04:57:25;;;;;;;48.58;30.08;;;17.70;85.90;;;16.98;70.08;100536.34;5070402;28;20040;-77
2023/05/09 04:59:56;;;;;;;;;;;17.70;85.70;;;16.99;69.88;100535.28;5063024;28;20054;-77
2023/05/09 05:02:24;;;;;;;45.65;29.13;;;17.70;85.60;;;16.99;69.96;100534.47;5069872;28;19980;-77
2023/05/09 05:04:52;;;;;;;49.88;27.65;;;17.70;85.50;;;17.01;70.01;100534.22;5066950;28;20551;-77
2023/05/09 05:07:20;;;;;;;42.75;26.73;;;17.70;85.70;;;17.03;69.98;100534.75;5052507;28;20608;-77
2023/05/09 05:09:47;;;;;;;44.33;26.92;;;17.80;85.50;;;17.03;69.99;100529.38;5070931;28;20044;-76
2023/05/09 05:12:15;;;;;;;44.08;27.42;;;17.80;85.80;;;17.03;70.23;100522.13;5085673;28;20128;-76
2023/05/09 05:14:44;;;;;;;40.75;25.50;;;17.80;85.90;;;17.04;70.41;100522.94;5063604;28;20039;-76
2023/05/09 05:17:17;;;;;;;48.70;27.40;;;17.80;86.10;;;17.01;70.58;100526.94;5065072;28;20048;-77
2023/05/09 05:19:45;;;;;;;42.33;26.48;;;17.80;86.10;;;17.02;70.60;100522.38;5068995;28;20044;-77
2023/05/09 05:22:13;;;;;;;46.33;26.80;;;17.80;86.20;;;17.03;70.74;100532.06;5068496;28;20055;-77
2023/05/09 05:24:42;;;;;;;43.65;27.23;;;17.80;86.50;;;17.04;70.26;100528.34;5067785;28;20044;-76
2023/05/09 05:27:11;;;;;;;53.15;29.35;;;17.80;86.10;;;17.04;70.59;100522.94;5065352;28;20066;-76
2023/05/09 05:29:39;;;;;;;49.05;27.98;;;17.80;86.40;;;17.03;70.52;100518.59;5084882;28;20432;-77
2023/05/09 05:32:07;;;;;;;51.55;26.83;;;17.80;86.30;;;17.02;70.95;100517.78;5050863;28;20044;-77
2023/05/09 05:34:34;;;;;;;49.70;27.20;;;17.70;86.80;;;17.03;70.64;100514.03;5062151;28;20055;-78
2023/05/09 05:37:02;;;;;;;45.20;26.05;;;17.70;86.50;;;17.05;70.56;100521.88;5071081;28;20066;-77
2023/05/09 05:39:29;;;;;;;38.60;25.27;;;17.80;86.10;;;17.06;70.61;100508.13;5067428;28;20052;-77
2023/05/09 05:41:57;;;;;;;43.55;24.73;;;17.80;86.30;;;17.08;71.09;100503.31;5070464;28;20047;-77
2023/05/09 05:44:24;;;;;;;36.15;23.73;;;17.80;87.00;;;17.08;71.25;100503.31;5060585;28;20114;-77
2023/05/09 05:46:53;;;;;;;36.40;25.13;;;17.80;86.90;;;17.07;71.50;100503.56;5065695;28;20051;-77
2023/05/09 05:49:20;;;;;;;37.08;23.73;;;17.80;87.50;;;17.07;71.35;100498.97;5071109;28;20048;-77
2023/05/09 05:51:47;;;;;;;37.85;24.45;;;17.80;86.90;;;17.08;71.60;100497.94;5088665;28;20243;-77
2023/05/09 05:54:14;;;;;;;33.22;24.33;;;17.80;87.30;;;17.08;71.43;100497.09;5063005;28;20040;-77
2023/05/09 05:56:42;;;;;;;34.50;23.42;;;17.80;87.00;;;17.10;71.00;100497.66;5064715;28;20052;-77
2023/05/09 05:59:10;;;;;;;36.33;24.42;;;17.80;86.80;;;17.12;70.95;100500.91;5067040;28;20415;-77
2023/05/09 06:01:37;;;;;;;34.90;23.83;;;17.90;86.90;;;17.14;70.81;100493.41;5070111;28;20101;-78
2023/05/09 06:04:07;;;;;;;30.63;23.13;;;17.90;86.50;;;17.17;70.73;100492.88;5070896;28;20051;-77
2023/05/09 06:06:34;;;;;;;32.47;23.48;;;17.90;86.50;;;17.18;71.13;100483.75;5082459;28;20039;-77
2023/05/09 06:09:02;;;;;;;32.47;23.17;;;17.90;87.00;;;17.19;70.92;100480.78;5069938;28;20079;-77
2023/05/09 06:11:29;;;;;;;33.55;23.15;;;17.90;86.90;;;17.22;70.84;100479.44;5087853;28;20048;-77
2023/05/09 06:13:56;;;;;;;37.97;23.60;;;18.00;86.60;;;17.24;70.59;100472.75;5068314;28;20036;-77
2023/05/09 06:16:24;;;;;;;31.23;23.08;;;18.00;86.70;;;17.27;70.73;100462.50;5069758;28;20054;-77
2023/05/09 06:18:51;;;;;;;32.33;23.08;;;18.00;86.50;;;17.32;70.62;100463.38;5069766;28;20040;-77
2023/05/09 06:21:22;;;;;;;33.38;23.27;;;18.10;86.50;;;17.35;71.29;100464.75;5069689;28;20046;-77
2023/05/09 06:23:50;;;;;;;30.88;21.67;;;18.10;87.20;;;17.41;71.47;100461.03;5068012;28;20052;-77
2023/05/09 06:26:17;;;;;;;31.75;22.42;;;18.10;87.50;;;17.47;71.83;100460.84;5069844;28;20040;-77
2023/05/09 06:28:44;;;;;;;29.55;21.38;;;18.20;87.80;;;17.57;72.52;100461.97;5087929;28;20068;-77
2023/05/09 06:31:12;;;;;;;28.45;21.15;;;18.30;88.30;;;17.65;71.89;100459.59;5085509;28;20866;-77
2023/05/09 06:33:39;;;;;;;29.98;20.95;;;18.40;87.50;;;17.70;71.49;100456.13;5069531;28;20097;-77
2023/05/09 06:36:06;;;;;;;32.85;21.35;;;18.40;87.20;;;17.75;71.55;100450.81;5067249;28;20036;-77
2023/05/09 06:38:35;;;;;;;27.27;20.20;;;18.50;87.10;;;17.80;70.84;100453.53;5082379;28;20117;-77
2023/05/09 06:41:02;;;;;;;27.83;19.02;;;18.50;86.70;;;17.85;70.61;100450.88;5087714;28;20381;-77
2023/05/09 06:43:30;;;;;;;24.70;18.67;;;18.60;86.50;;;17.87;70.77;100437.94;5087651;28;20119;-77
2023/05/09 06:45:57;;;;;;;26.75;18.58;;;18.70;86.60;;;17.93;71.01;100441.50;5088260;28;20481;-77
2023/05/09 06:48:25;;;;;;;23.38;18.42;;;18.70;87.00;;;17.97;70.75;100446.09;5067334;28;20044;-77
2023/05/09 06:50:52;;;;;;;24.65;18.70;;;18.70;86.60;;;18.01;71.13;100439.13;5069123;28;20404;-77
2023/05/09 06:53:20;;;;;;;27.58;17.90;;;18.80;86.50;;;18.06;70.98;100434.84;5088253;28;20127;-77
2023/05/09 06:55:48;;;;;;;28.38;17.85;;;18.80;86.40;;;18.09;70.59;100435.09;5087673;28;20125;-77
2023/05/09 06:58:15;;;;;;;25.98;17.90;;;18.90;86.40;;;18.10;70.50;100425.09;5084501;28;20044;-77
2023/05/09 07:00:43;;;;;;;23.08;17.13;;;18.90;86.10;;;18.14;70.56;100418.13;5079118;28;20056;-77
2023/05/09 07:03:10;;;;;;;23.50;15.88;;;18.90;86.10;;;18.16;70.15;100416.78;5081748;28;20044;-77
2023/05/09 07:05:37;;;;;;;23.52;16.48;;;18.90;85.90;;;18.19;69.88;100412.75;5087954;28;20044;-76
2023/05/09 07:08:05;;;;;;;26.42;15.70;;;18.90;85.80;;;18.22;69.80;100412.22;5085695;28;20052;-77
2023/05/09 07:10:32;;;;;;;22.30;16.40;;;19.00;85.50;;;18.25;69.93;100412.53;5086693;28;20044;-77
2023/05/09 07:13:01;;;;;;;19.95;15.48;;;19.00;85.70;;;18.29;70.11;100407.38;5087022;28;20052;-77
2023/05/09 07:15:28;;;;;;;23.20;15.45;;;19.10;85.90;;;18.37;70.40;100401.50;5088161;28;20043;-77
2023/05/09 07:17:55;;;;;;;18.17;14.73;;;19.10;86.00;;;18.41;69.87;100399.88;5087015;28;20135;-77
2023/05/09 07:20:22;;;;;;;19.08;13.70;;;19.20;85.50;;;18.43;70.15;100392.31;5082193;28;20064;-77
2023/05/09 07:22:50;;;;;;;18.00;13.55;;;19.20;85.90;;;18.46;69.77;100386.41;5064898;28;20528;-77
2023/05/09 07:25:17;;;;;;;17.95;14.02;;;19.30;85.10;;;18.49;69.48;100385.84;5079593;28;20082;-77
2023/05/09 07:27:44;;;;;;;19.35;14.00;;;19.30;85.30;;;18.56;69.31;100374.81;5087923;28;20717;-77
2023/05/09 07:30:14;;;;;;;17.67;12.77;;;19.40;84.80;;;18.64;69.94;100376.16;5086560;28;20043;-77
2023/05/09 07:32:41;;;;;;;17.20;12.55;;;19.40;85.60;;;18.73;69.46;100378.09;5085244;28;20051;-77
2023/05/09 07:35:08;;;;;;;311.05;42.80;;;19.50;84.90;;;18.86;70.47;100371.38;5085966;28;20045;-77
2023/05/09 07:37:36;;;;;;;36.97;14.18;;;19.60;86.00;;;18.99;69.12;100361.94;5081483;28;20135;-77
2023/05/09 07:40:04;;;;;;;19.92;12.05;;;19.70;85.00;;;19.15;69.27;100370.88;5079182;28;20055;-77
2023/05/09 07:42:32;;;;;;;17.17;11.57;;;19.90;84.90;;;19.21;67.81;100359.75;5067654;28;20055;-77
2023/05/09 07:44:59;;;;;;;15.48;12.00;;;20.00;83.50;;;19.27;67.76;100363.28;5085590;28;20638;-77
2023/05/09 07:47:28;;;;;;;15.23;11.18;;;20.00;83.20;;;19.29;67.00;100361.94;5085947;28;20501;-77
2023/05/09 07:49:55;;;;;;;15.32;11.77;;;20.10;83.00;;;19.34;67.28;100354.91;5086786;28;20040;-77
2023/05/09 07:52:22;;;;;;;14.85;11.20;;;20.10;83.00;;;19.39;66.99;100352.19;5081057;28;20040;-77
2023/05/09 07:54:50;;;;;;;13.10;9.98;;;20.10;82.50;;;19.37;66.21;100352.44;5080559;28;20044;-77
2023/05/09 07:57:17;;;;;;;13.70;10.00;;;20.20;82.10;;;19.39;66.74;100354.91;5068245;28;20040;-77
2023/05/09 07:59:44;;;;;;;20.98;10.40;;;20.20;82.30;;;19.34;64.84;100352.19;5085785;28;20842;-77
2023/05/09 08:02:12;;;;;;;15.93;10.93;;;20.10;80.40;;;19.27;65.16;100347.84;5084947;28;20415;-77
2023/05/09 08:04:40;;;;;;;14.45;10.80;;;20.10;81.00;;;19.23;65.19;100346.81;5087462;28;20127;-77
2023/05/09 08:07:08;;;;;;;15.63;10.48;;;20.00;80.60;;;19.20;65.24;100346.53;5090984;28;20040;-77
2023/05/09 08:09:35;;;;;;;13.50;9.48;;;20.00;80.70;;;19.23;65.65;100338.69;5090214;28;20046;-77
2023/05/09 08:12:02;;;;;;;14.25;10.25;;;20.00;81.30;;;19.23;66.49;100337.88;5057092;22;20054;-78
2023/05/09 08:14:29;;;;;;;14.38;9.65;;;20.10;82.10;;;19.33;67.16;100343.28;5030809;28;20073;-81
2023/05/09 08:16:57;;;;;;;14.30;9.40;;;20.10;82.70;;;19.41;66.14;100333.78;5031211;28;20049;-80
2023/05/09 08:19:24;;;;;;;12.75;9.50;;;20.20;82.00;;;19.38;64.82;100318.13;5030675;28;20056;-81
2023/05/09 08:21:54;;;;;;;13.85;10.38;;;20.20;80.80;;;19.36;64.82;100317.56;5019484;28;20046;-78
2023/05/09 08:24:21;;;;;;;12.52;10.50;;;20.20;80.40;;;19.35;64.72;100318.66;5026818;28;20041;-79
2023/05/09 08:26:48;;;;;;;12.98;9.88;;;20.10;80.50;;;19.32;64.79;100306.47;5009085;28;20046;-78
2023/05/09 08:29:16;;;;;;;108.47;19.60;;;20.10;80.30;;;19.41;66.38;100307.53;5002937;28;20069;-79
2023/05/09 08:31:43;;;;;;;20.90;9.82;;;20.20;81.60;;;19.56;65.74;100302.09;5010358;28;20108;-80
2023/05/09 08:34:11;;;;;;;57.15;13.40;;;20.40;81.80;;;19.71;65.14;100298.56;5018879;28;20125;-81
2023/05/09 08:36:39;;;;;;;15.35;9.13;;;20.50;80.80;;;19.86;64.47;100294.19;5015939;28;20040;-81
2023/05/09 08:39:08;;;;;;;13.90;8.25;;;20.50;80.40;;;19.95;64.89;100293.31;5005526;28;20046;-81
2023/05/09 08:41:36;;;;;;;24.60;9.02;;;20.70;80.00;;;19.95;63.21;100289.81;5001333;28;20042;-81
2023/05/09 08:44:04;;;;;;;15.68;7.40;;;20.70;79.20;;;19.98;63.65;100287.38;5001939;28;20164;-81
2023/05/09 08:46:36;;;;;;;9.25;6.88;;;20.70;79.80;;;20.07;62.66;100290.31;5030617;28;20041;-81
2023/05/09 08:49:07;;;;;;;9.60;6.85;;;20.80;78.60;;;20.19;63.41;100284.56;5015613;28;20049;-80
2023/05/09 08:51:35;;;;;;;10.27;6.28;;;20.90;79.00;;;20.29;62.24;100281.78;5006767;28;20041;-81
2023/05/09 08:54:03;;;;;;;11.88;7.18;;;21.00;77.60;;;20.32;61.02;100275.81;5003241;28;20054;-81
2023/05/09 08:56:34;;;;;;;10.63;6.88;;;21.10;76.60;;;20.36;60.46;100276.06;5020653;28;20045;-81
2023/05/09 08:59:01;;;;;;;;;;;21.10;75.80;;;20.38;60.81;100271.16;5003984;28;20117;-81
2023/05/09 09:01:30;;;;;;;11.02;7.63;;;21.10;76.60;;;20.35;61.99;100269.84;5009649;28;19991;-79
2023/05/09 09:03:57;;;;;;;10.50;8.27;;;21.10;78.20;;;20.36;61.24;100268.75;5000165;28;20046;-80
2023/05/09 09:06:25;;;;;;;11.30;7.82;;;21.10;76.90;;;20.32;61.21;100265.78;5012736;28;20051;-81
2023/05/09 09:08:54;;;;;;;9.80;7.15;;;21.20;76.80;;;20.32;61.21;100264.97;5024169;28;20049;-78
2023/05/09 09:11:22;;;;;;;8.88;7.22;;;21.10;76.20;;;20.28;61.01;100267.44;5026515;28;20665;-81
2023/05/09 09:13:54;;;;;;;13.10;7.72;;;21.10;76.70;;;20.26;61.82;100257.97;5007108;28;20534;-81
2023/05/09 09:16:23;;;;;;;10.93;8.18;;;21.10;77.60;;;20.27;61.02;100257.69;4997259;28;20046;-81
2023/05/09 09:18:54;;;;;;;9.63;8.05;;;21.10;76.30;;;20.32;61.31;100260.38;5005237;28;20050;-79
2023/05/09 09:21:22;;;;;;;17.23;8.40;;;21.10;76.80;;;20.38;60.08;100247.59;5011128;28;20076;-81
2023/05/09 09:23:50;;;;;;;13.10;7.53;;;21.20;75.40;;;20.39;58.95;100254.63;5025700;28;20146;-81
2023/05/09 09:26:17;;;;;;;27.85;9.50;;;21.20;74.30;;;20.45;60.35;100245.38;5017638;28;20052;-81
2023/05/09 09:28:44;;;;;;;15.90;7.68;;;21.30;75.80;;;20.47;58.37;100245.94;5009639;28;20104;-81
2023/05/09 09:31:26;;;;;;;10.43;7.47;;;21.30;73.80;;;20.47;58.03;100237.81;5003380;28;20430;-80
2023/05/09 09:34:00;;;;;;;10.40;7.60;;;21.30;73.00;;;20.42;56.28;100242.44;4989773;28;20233;-81
2023/05/09 09:36:28;;;;;;;12.27;7.85;;;21.20;71.10;;;20.40;58.38;100245.44;5004870;28;20300;-80
2023/05/09 09:39:00;;;;;;;36.78;9.85;;;21.20;73.30;;;20.40;56.54;100241.88;5002509;28;20048;-80
2023/05/09 09:41:32;;;;;;;12.75;8.13;;;21.20;71.40;;;20.38;56.88;100230.53;5000869;28;20042;-81
2023/05/09 09:44:06;;;;;;;13.43;7.90;;;21.20;71.80;;;20.38;57.99;100231.34;5011773;28;20045;-81
2023/05/09 09:46:43;;;;;;;9.57;7.90;;;21.20;73.10;;;20.36;57.83;100235.44;5001411;28;20076;-81
2023/05/09 09:49:11;;;;;;;10.80;8.02;;;21.20;72.90;;;20.31;57.81;100218.13;5004629;28;20064;-81
2023/05/09 09:51:38;;;;;;;10.77;7.25;;;21.10;72.70;;;20.27;56.49;100219.78;4999757;28;20508;-81
2023/05/09 09:54:08;;;;;;;11.98;7.25;;;21.10;71.50;;;20.23;57.86;100213.28;5008509;28;20050;-81
2023/05/09 09:56:43;;;;;;;79.22;13.13;;;21.10;72.80;;;20.23;57.38;100209.78;4997287;28;20073;-81
2023/05/09 09:59:12;;;;;;;10.25;6.82;;;21.10;71.90;;;20.19;56.28;100201.41;4993815;28;20120;-80
2023/05/09 10:02:01;;;;;;;10.13;5.88;;;21.00;71.20;;;20.17;56.77;100200.09;5002328;28;20042;-81
2023/05/09 10:04:31;;;;;;;10.07;6.13;;;21.00;71.50;;;20.19;56.77;100197.88;5008777;28;20054;-78
2023/05/09 10:07:02;;;;;;;7.75;5.88;;;21.00;71.40;;;20.22;57.57;100200.06;5002055;28;20038;-81